createdAt,value
2023-01-06T00:01:09.675Z,101388.13
2023-01-06T00:03:36.629Z,101380.69
2023-01-06T00:06:04.921Z,101391.91
2023-01-06T00:08:32.630Z,101388.03
2023-01-06T00:10:58.833Z,101389.97
2023-01-06T00:13:25.406Z,101396.97
2023-01-06T00:15:51.816Z,101400.19
2023-01-06T00:18:18.444Z,101397.16
2023-01-06T00:20:44.623Z,101398.78
2023-01-06T00:23:11.302Z,101403.00
2023-01-06T00:25:37.540Z,101403.94
2023-01-06T00:28:04.141Z,101398.69
2023-01-06T00:30:32.047Z,101398.56
2023-01-06T00:32:58.727Z,101409.00
2023-01-06T00:35:24.931Z,101412.56
2023-01-06T00:37:51.458Z,101406.22
2023-01-06T00:40:17.613Z,101411.06
2023-01-06T00:42:44.160Z,101423.97
2023-01-06T00:45:10.656Z,101419.13
2023-01-06T00:47:37.206Z,101422.47
2023-01-06T00:50:03.794Z,101421.38
2023-01-06T00:52:30.390Z,101433.00
2023-01-06T00:54:58.718Z,101425.25
2023-01-06T00:57:25.554Z,101426.25
2023-01-06T00:59:51.989Z,101426.34
2023-01-06T01:02:18.779Z,101420.75
2023-01-06T01:04:45.274Z,101431.31
2023-01-06T01:07:11.850Z,101427.84
2023-01-06T01:09:39.103Z,101429.13
2023-01-06T01:12:14.911Z,101427.06
2023-01-06T01:14:50.719Z,101433.44
2023-01-06T01:17:20.016Z,101434.94
2023-01-06T01:19:47.805Z,101439.03
2023-01-06T01:22:14.507Z,101441.81
2023-01-06T01:24:40.952Z,101446.09
2023-01-06T01:27:08.239Z,101444.22
2023-01-06T01:29:34.492Z,101460.34
2023-01-06T01:32:01.533Z,101461.72
2023-01-06T01:34:28.107Z,101469.38
2023-01-06T01:36:55.962Z,101461.94
2023-01-06T01:39:25.236Z,101460.97
2023-01-06T01:41:52.571Z,101466.59
2023-01-06T01:44:53.484Z,101469.28
2023-01-06T01:47:48.281Z,101475.34
2023-01-06T01:50:23.130Z,101489.13
2023-01-06T01:52:53.319Z,101488.50
2023-01-06T01:55:20.945Z,101485.16
2023-01-06T01:57:54.360Z,101484.94
2023-01-06T02:00:20.622Z,101480.19
2023-01-06T02:02:48.109Z,101484.72
2023-01-06T02:05:19.625Z,101481.06
2023-01-06T02:07:47.199Z,101475.88
2023-01-06T02:10:19.275Z,101485.34
2023-01-06T02:12:48.951Z,101488.13
2023-01-06T02:15:24.343Z,101488.38
2023-01-06T02:18:06.222Z,101487.19
2023-01-06T02:21:02.689Z,101489.78
2023-01-06T02:24:01.519Z,101488.16
2023-01-06T02:26:58.907Z,101492.88
2023-01-06T02:29:46.918Z,101481.06
2023-01-06T02:32:18.757Z,101492.78
2023-01-06T02:35:10.051Z,101491.50
2023-01-06T02:38:04.138Z,101487.09
2023-01-06T02:40:40.174Z,101477.63
2023-01-06T02:43:52.281Z,101478.91
2023-01-06T02:46:29.830Z,101485.25
2023-01-06T02:49:06.675Z,101483.09
2023-01-06T02:51:56.366Z,101484.63
2023-01-06T02:54:29.892Z,101490.75
2023-01-06T02:57:26.997Z,101495.06
2023-01-06T03:00:13.837Z,101493.34
2023-01-06T03:02:43.723Z,101490.97
2023-01-06T03:05:15.436Z,101489.25
2023-01-06T03:07:45.174Z,101491.41
2023-01-06T03:10:15.718Z,101493.56
2023-01-06T03:12:49.771Z,101489.03
2023-01-06T03:15:16.925Z,101492.56
2023-01-06T03:17:44.151Z,101492.34
2023-01-06T03:20:11.837Z,101495.34
2023-01-06T03:22:39.610Z,101487.28
2023-01-06T03:25:07.515Z,101489.53
2023-01-06T03:27:35.078Z,101486.25
2023-01-06T03:30:06.077Z,101491.22
2023-01-06T03:32:43.324Z,101493.91
2023-01-06T03:35:19.089Z,101485.63
2023-01-06T03:38:03.794Z,101479.84
2023-01-06T03:40:41.386Z,101495.44
2023-01-06T03:43:27.373Z,101488.78
2023-01-06T03:45:57.648Z,101487.94
2023-01-06T03:48:44.482Z,101492.44
2023-01-06T03:51:28.346Z,101484.28
2023-01-06T03:54:01.980Z,101493.75
2023-01-06T03:56:33.264Z,101489.34
2023-01-06T03:59:10.652Z,101483.00
2023-01-06T04:01:38.697Z,101478.59
2023-01-06T04:04:05.964Z,101482.13
2023-01-06T04:06:32.307Z,101475.47
2023-01-06T04:09:02.427Z,101488.06
2023-01-06T04:11:48.287Z,101484.94
2023-01-06T04:14:14.834Z,101483.09
2023-01-06T04:16:41.698Z,101484.09
2023-01-06T04:19:08.958Z,101490.13
2023-01-06T04:21:35.179Z,101491.06
2023-01-06T04:24:03.252Z,101487.75
2023-01-06T04:26:29.761Z,101483.53
2023-01-06T04:28:56.893Z,101486.53
2023-01-06T04:31:23.171Z,101484.88
2023-01-06T04:33:52.158Z,101487.28
2023-01-06T04:36:19.688Z,101487.72
2023-01-06T04:38:49.355Z,101481.81
2023-01-06T04:41:15.691Z,101483.09
2023-01-06T04:43:42.523Z,101480.84
2023-01-06T04:46:08.834Z,101482.91
2023-01-06T04:48:35.536Z,101478.91
2023-01-06T04:51:07.575Z,101481.81
2023-01-06T04:53:41.309Z,101490.13
2023-01-06T04:56:10.284Z,101479.03
2023-01-06T04:58:37.568Z,101474.06
2023-01-06T05:01:11.633Z,101466.06
2023-01-06T05:03:39.234Z,101463.59
2023-01-06T05:06:10.576Z,101462.63
2023-01-06T05:08:38.844Z,101463.38
2023-01-06T05:11:12.027Z,101474.81
2023-01-06T05:13:39.368Z,101465.97
2023-01-06T05:16:10.903Z,101468.69
2023-01-06T05:18:37.825Z,101473.31
2023-01-06T05:21:04.303Z,101483.31
2023-01-06T05:23:30.982Z,101485.91
2023-01-06T05:25:57.223Z,101483.22
2023-01-06T05:28:24.198Z,101468.56
2023-01-06T05:30:51.772Z,101475.56
2023-01-06T05:33:18.515Z,101483.44
2023-01-06T05:35:44.795Z,101490.22
2023-01-06T05:38:11.570Z,101503.69
2023-01-06T05:40:38.072Z,101495.06
2023-01-06T05:43:04.825Z,101501.53
2023-01-06T05:45:31.057Z,101489.69
2023-01-06T05:47:58.446Z,101488.19
2023-01-06T05:50:24.905Z,101482.56
2023-01-06T05:52:52.931Z,101477.41
2023-01-06T05:55:19.267Z,101482.34
2023-01-06T05:57:45.887Z,101489.03
2023-01-06T06:00:12.590Z,101485.69
2023-01-06T06:02:39.230Z,101493.66
2023-01-06T06:05:06.027Z,101497.44
2023-01-06T06:07:32.780Z,101493.66
2023-01-06T06:09:59.258Z,101492.47
2023-01-06T06:12:25.831Z,101492.91
2023-01-06T06:14:52.145Z,101490.31
2023-01-06T06:17:18.772Z,101497.75
2023-01-06T06:19:45.082Z,101501.97
2023-01-06T06:22:11.876Z,101503.91
2023-01-06T06:24:38.126Z,101502.50
2023-01-06T06:27:04.779Z,101493.44
2023-01-06T06:29:31.115Z,101501.44
2023-01-06T06:31:57.922Z,101485.81
2023-01-06T06:34:24.495Z,101491.19
2023-01-06T06:36:51.710Z,101486.00
2023-01-06T06:39:18.285Z,101476.97
2023-01-06T06:41:45.014Z,101479.44
2023-01-06T06:44:11.517Z,101482.47
2023-01-06T06:46:38.349Z,101479.97
2023-01-06T06:49:04.810Z,101484.84
2023-01-06T06:51:31.356Z,101486.88
2023-01-06T06:53:57.716Z,101487.75
2023-01-06T06:56:24.297Z,101493.88
2023-01-06T06:58:50.681Z,101489.88
2023-01-06T07:01:19.245Z,101488.16
2023-01-06T07:03:46.192Z,101477.38
2023-01-06T07:06:15.874Z,101473.94
2023-01-06T07:08:43.753Z,101472.97
2023-01-06T07:11:13.299Z,101460.59
2023-01-06T07:13:39.534Z,101468.88
2023-01-06T07:16:06.828Z,101461.78
2023-01-06T07:18:33.406Z,101465.31
2023-01-06T07:21:00.097Z,101456.06
2023-01-06T07:23:26.408Z,101461.56
2023-01-06T07:25:58.954Z,101459.47
2023-01-06T07:28:26.592Z,101465.72
2023-01-06T07:30:53.787Z,101467.19
2023-01-06T07:33:20.767Z,101465.25
2023-01-06T07:35:51.628Z,101453.88
2023-01-06T07:38:19.151Z,101455.63
2023-01-06T07:40:45.779Z,101441.19
2023-01-06T07:43:12.170Z,101450.03
2023-01-06T07:45:38.973Z,101449.16
2023-01-06T07:48:05.611Z,101452.06
2023-01-06T07:50:32.738Z,101450.22
2023-01-06T07:53:01.878Z,101448.94
2023-01-06T07:55:29.678Z,101443.09
2023-01-06T07:57:58.373Z,101449.34
2023-01-06T08:00:25.488Z,101450.69
2023-01-06T08:02:52.215Z,101456.19
2023-01-06T08:05:20.781Z,101449.63
2023-01-06T08:07:47.225Z,101436.19
2023-01-06T08:10:14.147Z,101446.69
2023-01-06T08:12:40.632Z,101437.28
2023-01-06T08:15:07.826Z,101427.06
2023-01-06T08:17:34.182Z,101431.06
2023-01-06T08:20:00.928Z,101420.25
2023-01-06T08:22:27.499Z,101425.19
2023-01-06T08:24:54.218Z,101425.31
2023-01-06T08:27:20.628Z,101420.25
2023-01-06T08:29:49.332Z,101428.34
2023-01-06T08:32:15.953Z,101432.44
2023-01-06T08:34:42.543Z,101439.94
2023-01-06T08:37:09.484Z,101449.53
2023-01-06T08:39:35.998Z,101456.31
2023-01-06T08:42:02.238Z,101446.50
2023-01-06T08:44:28.787Z,101446.91
2023-01-06T08:46:54.953Z,101450.34
2023-01-06T08:49:21.839Z,101450.88
2023-01-06T08:51:48.123Z,101444.16
2023-01-06T08:54:14.885Z,101441.34
2023-01-06T08:56:42.848Z,101439.63
2023-01-06T08:59:13.430Z,101434.84
2023-01-06T09:01:39.853Z,101422.53
2023-01-06T09:04:07.719Z,101425.00
2023-01-06T09:06:34.556Z,101402.03
2023-01-06T09:09:04.432Z,101422.19
2023-01-06T09:11:31.164Z,101425.16
2023-01-06T09:13:57.755Z,101428.03
2023-01-06T09:16:24.339Z,101417.59
2023-01-06T09:18:51.335Z,101415.47
2023-01-06T09:21:19.694Z,101407.16
2023-01-06T09:23:47.222Z,101410.81
2023-01-06T09:26:15.359Z,101393.50
2023-01-06T09:28:42.508Z,101386.91
2023-01-06T09:31:09.869Z,101373.75
2023-01-06T09:33:36.600Z,101372.50
2023-01-06T09:36:03.492Z,101360.50
2023-01-06T09:38:30.113Z,101366.81
2023-01-06T09:40:59.283Z,101358.34
2023-01-06T09:43:31.934Z,101366.81
2023-01-06T09:46:02.455Z,101360.50
2023-01-06T09:48:34.861Z,101356.16
2023-01-06T09:51:04.829Z,101333.84
2023-01-06T09:53:37.061Z,101338.03
2023-01-06T09:56:08.288Z,101322.41
2023-01-06T09:58:40.948Z,101341.19
2023-01-06T10:01:11.601Z,101356.03
2023-01-06T10:03:38.282Z,101343.69
2023-01-06T10:06:10.711Z,101343.69
2023-01-06T10:08:46.439Z,101336.09
2023-01-06T10:11:24.465Z,101329.97
2023-01-06T10:13:57.185Z,101324.56
2023-01-06T10:16:48.192Z,101327.28
2023-01-06T10:19:27.807Z,101325.78
2023-01-06T10:22:10.045Z,101323.75
2023-01-06T10:24:58.314Z,101326.06
2023-01-06T10:27:36.327Z,101309.41
2023-01-06T10:30:13.943Z,101311.13
2023-01-06T10:32:42.773Z,101284.00
2023-01-06T10:35:15.548Z,101279.72
2023-01-06T10:37:45.787Z,101289.56
2023-01-06T10:40:18.385Z,101293.19
2023-01-06T10:42:59.673Z,101292.50
2023-01-06T10:45:40.082Z,101290.88
2023-01-06T10:48:12.950Z,101282.25
2023-01-06T10:50:39.586Z,101270.66
2023-01-06T10:53:05.869Z,101259.97
2023-01-06T10:55:51.097Z,101252.00
2023-01-06T10:58:33.982Z,101246.13
2023-01-06T11:01:11.401Z,101247.84
2023-01-06T11:03:42.071Z,101233.38
2023-01-06T11:06:24.475Z,101217.56
2023-01-06T11:08:50.825Z,101204.44
2023-01-06T11:11:34.455Z,101201.25
2023-01-06T11:14:04.268Z,101188.88
2023-01-06T11:16:32.675Z,101172.81
2023-01-06T11:19:18.104Z,101176.00
2023-01-06T11:21:46.464Z,101174.53
2023-01-06T11:24:23.656Z,101167.16
2023-01-06T11:27:01.857Z,101160.28
2023-01-06T11:29:32.787Z,101160.56
2023-01-06T11:32:12.768Z,101148.91
2023-01-06T11:34:50.217Z,101153.19
2023-01-06T11:37:49.353Z,101159.31
2023-01-06T11:40:21.657Z,101144.13
2023-01-06T11:42:54.627Z,101144.63
2023-01-06T11:45:35.875Z,101143.41
2023-01-06T11:48:14.633Z,101133.97
2023-01-06T11:50:49.069Z,101134.09
2023-01-06T11:53:18.885Z,101128.44
2023-01-06T11:56:06.549Z,101117.19
2023-01-06T11:58:56.085Z,101107.59
2023-01-06T12:01:42.700Z,101104.69
2023-01-06T12:04:31.447Z,101100.13
2023-01-06T12:07:11.479Z,101095.38
2023-01-06T12:09:40.775Z,101095.13
2023-01-06T12:12:10.535Z,101083.13
2023-01-06T12:14:42.226Z,101092.31
2023-01-06T12:17:28.848Z,101092.66
2023-01-06T12:20:05.067Z,101079.91
2023-01-06T12:22:47.239Z,101079.19
2023-01-06T12:25:41.781Z,101069.63
2023-01-06T12:28:18.476Z,101070.63
2023-01-06T12:30:50.243Z,101074.03
2023-01-06T12:33:42.160Z,101074.28
2023-01-06T12:36:32.328Z,101068.41
2023-01-06T12:39:02.938Z,101062.03
2023-01-06T12:41:46.219Z,101069.16
2023-01-06T12:44:21.636Z,101061.31
2023-01-06T12:47:01.692Z,101054.06
2023-01-06T12:49:43.678Z,101038.00
2023-01-06T12:52:19.028Z,101037.16
2023-01-06T12:54:52.664Z,101028.69
2023-01-06T12:57:44.951Z,101034.22
2023-01-06T13:00:30.265Z,101036.78
2023-01-06T13:03:09.245Z,101029.69
2023-01-06T13:05:44.601Z,101031.41
2023-01-06T13:08:26.026Z,101033.38
2023-01-06T13:11:31.355Z,101017.44
2023-01-06T13:14:24.966Z,101018.78
2023-01-06T13:17:07.557Z,101011.94
2023-01-06T13:19:47.360Z,101019.66
2023-01-06T13:22:20.326Z,101018.78
2023-01-06T13:25:08.560Z,101018.91
2023-01-06T13:27:57.097Z,101013.66
2023-01-06T13:30:38.922Z,101006.53
2023-01-06T13:33:14.370Z,101001.16
2023-01-06T13:35:47.048Z,101002.00
2023-01-06T13:38:28.823Z,101006.66
2023-01-06T13:41:00.484Z,101003.47
2023-01-06T13:43:30.184Z,100998.56
2023-01-06T13:46:04.347Z,100992.56
2023-01-06T13:48:45.004Z,101004.94
2023-01-06T13:51:15.205Z,100997.09
2023-01-06T13:53:44.077Z,100999.94
2023-01-06T13:56:13.658Z,101003.84
2023-01-06T13:58:44.327Z,100990.50
2023-01-06T14:01:12.114Z,100991.59
2023-01-06T14:03:40.557Z,100991.09
2023-01-06T14:06:39.994Z,100991.34
2023-01-06T14:09:17.206Z,100994.16
2023-01-06T14:11:44.463Z,100994.16
2023-01-06T14:14:38.074Z,100997.84
2023-01-06T14:17:04.824Z,100997.34
2023-01-06T14:19:35.971Z,101007.88
2023-01-06T14:22:18.454Z,101001.25
2023-01-06T14:24:56.915Z,100990.47
2023-01-06T14:27:45.416Z,100990.44
2023-01-06T14:30:32.824Z,100993.88
2023-01-06T14:33:05.031Z,100986.50
2023-01-06T14:35:41.473Z,100988.13
2023-01-06T14:38:20.200Z,100979.69
2023-01-06T14:40:55.915Z,100975.28
2023-01-06T14:43:31.316Z,100974.50
2023-01-06T14:46:03.921Z,100972.69
2023-01-06T14:48:36.673Z,100979.41
2023-01-06T14:51:05.474Z,100969.47
2023-01-06T14:53:42.103Z,100962.75
2023-01-06T14:56:17.483Z,100968.09
2023-01-06T14:58:45.322Z,100972.66
2023-01-06T15:01:30.474Z,100965.53
2023-01-06T15:03:59.328Z,100957.91
2023-01-06T15:06:27.532Z,100935.41
2023-01-06T15:09:09.794Z,100949.13
2023-01-06T15:11:40.633Z,100949.25
2023-01-06T15:14:29.489Z,100940.69
2023-01-06T15:16:59.630Z,100941.41
2023-01-06T15:19:26.521Z,100946.19
2023-01-06T15:21:53.936Z,100938.47
2023-01-06T15:24:27.143Z,100941.53
2023-01-06T15:26:57.027Z,100932.97
2023-01-06T15:29:25.508Z,100933.19
2023-01-06T15:31:53.280Z,100924.75
2023-01-06T15:34:24.742Z,100926.31
2023-01-06T15:36:53.768Z,100922.16
2023-01-06T15:39:29.016Z,100929.38
2023-01-06T15:41:56.757Z,100933.19
2023-01-06T15:44:28.288Z,100934.88
2023-01-06T15:47:05.985Z,100933.06
2023-01-06T15:49:43.406Z,100930.09
2023-01-06T15:52:27.323Z,100934.75
2023-01-06T15:55:01.237Z,100938.53
2023-01-06T15:57:31.525Z,100936.94
2023-01-06T16:00:36.490Z,100947.47
2023-01-06T16:03:05.358Z,100940.50
2023-01-06T16:05:35.595Z,100940.97
2023-01-06T16:08:04.502Z,100940.84
2023-01-06T16:10:38.093Z,100938.50
2023-01-06T16:13:16.045Z,100936.91
2023-01-06T16:15:45.922Z,100928.41
2023-01-06T16:18:13.959Z,100941.56
2023-01-06T16:20:43.937Z,100930.38
2023-01-06T16:23:30.832Z,100932.69
2023-01-06T16:26:03.958Z,100935.00
2023-01-06T16:28:30.402Z,100912.56
2023-01-06T16:31:12.220Z,100927.78
2023-01-06T16:33:53.932Z,100920.41
2023-01-06T16:36:21.379Z,100906.31
2023-01-06T16:38:47.630Z,100912.38
2023-01-06T16:41:17.056Z,100913.69
2023-01-06T16:43:45.153Z,100917.66
2023-01-06T16:46:20.253Z,100913.44
2023-01-06T16:48:46.920Z,100910.72
2023-01-06T16:51:18.536Z,100915.59
2023-01-06T16:53:46.587Z,100911.66
2023-01-06T16:56:19.142Z,100908.38
2023-01-06T16:58:45.924Z,100911.19
2023-01-06T17:01:18.298Z,100911.53
2023-01-06T17:03:52.472Z,100906.72
2023-01-06T17:06:21.446Z,100908.69
2023-01-06T17:08:49.587Z,100908.16
2023-01-06T17:11:18.653Z,100916.97
2023-01-06T17:13:56.826Z,100916.59
2023-01-06T17:16:26.477Z,100924.03
2023-01-06T17:19:13.505Z,100930.16
2023-01-06T17:21:40.500Z,100934.28
2023-01-06T17:24:28.008Z,100940.94
2023-01-06T17:27:01.618Z,100931.84
2023-01-06T17:29:34.702Z,100937.00
2023-01-06T17:32:13.252Z,100943.97
2023-01-06T17:34:39.555Z,100939.09
2023-01-06T17:37:13.266Z,100930.59
2023-01-06T17:39:44.419Z,100937.13
2023-01-06T17:42:11.030Z,100942.19
2023-01-06T17:44:48.335Z,100942.94
2023-01-06T17:47:17.169Z,100943.91
2023-01-06T17:49:54.253Z,100944.97
2023-01-06T17:52:23.612Z,100935.28
2023-01-06T17:55:15.119Z,100949.63
2023-01-06T17:57:46.972Z,100955.75
2023-01-06T18:00:42.799Z,100952.94
2023-01-06T18:03:27.536Z,100958.00
2023-01-06T18:06:00.115Z,100956.44
2023-01-06T18:08:30.383Z,100957.16
2023-01-06T18:11:13.206Z,100964.72
2023-01-06T18:13:50.683Z,100967.28
2023-01-06T18:16:30.381Z,100966.31
2023-01-06T18:19:05.039Z,100968.34
2023-01-06T18:21:37.269Z,100962.66
2023-01-06T18:24:30.089Z,100971.81
2023-01-06T18:26:59.108Z,100976.56
2023-01-06T18:29:37.253Z,100970.16
2023-01-06T18:32:27.257Z,100980.69
2023-01-06T18:35:03.292Z,100985.25
2023-01-06T18:37:33.336Z,100987.22
2023-01-06T18:40:04.022Z,100987.53
2023-01-06T18:42:43.784Z,100992.94
2023-01-06T18:45:23.751Z,101004.03
2023-01-06T18:47:58.741Z,101004.03
2023-01-06T18:50:36.325Z,100999.34
2023-01-06T18:53:15.427Z,101006.19
2023-01-06T18:55:46.542Z,101012.50
2023-01-06T18:58:32.057Z,101006.50
2023-01-06T19:01:01.457Z,101011.22
2023-01-06T19:03:32.575Z,101009.38
2023-01-06T19:06:08.241Z,101008.38
2023-01-06T19:08:39.661Z,101015.81
2023-01-06T19:11:31.380Z,101024.63
2023-01-06T19:14:00.546Z,101017.09
2023-01-06T19:16:37.026Z,101025.09
2023-01-06T19:19:09.603Z,101025.34
2023-01-06T19:21:37.629Z,101023.50
2023-01-06T19:24:25.704Z,101028.91
2023-01-06T19:26:54.139Z,101033.78
2023-01-06T19:29:29.219Z,101033.91
2023-01-06T19:31:59.923Z,101040.31
2023-01-06T19:34:26.530Z,101046.19
2023-01-06T19:36:56.359Z,101054.03
2023-01-06T19:39:41.951Z,101048.16
2023-01-06T19:42:15.908Z,101052.84
2023-01-06T19:44:42.831Z,101057.41
2023-01-06T19:47:23.022Z,101060.81
2023-01-06T19:49:56.204Z,101070.19
2023-01-06T19:52:35.152Z,101070.47
2023-01-06T19:55:19.299Z,101077.00
2023-01-06T19:58:18.572Z,101080.16
2023-01-06T20:00:53.827Z,101080.88
2023-01-06T20:03:39.773Z,101080.28
2023-01-06T20:06:06.682Z,101080.03
2023-01-06T20:08:33.831Z,101087.00
2023-01-06T20:11:01.943Z,101096.56
2023-01-06T20:13:31.568Z,101095.91
2023-01-06T20:15:58.408Z,101100.19
2023-01-06T20:18:25.505Z,101102.16
2023-01-06T20:20:52.003Z,101102.88
2023-01-06T20:23:19.103Z,101102.03
2023-01-06T20:25:46.477Z,101102.03
2023-01-06T20:28:13.214Z,101098.16
2023-01-06T20:30:39.775Z,101101.72
2023-01-06T20:33:06.795Z,101100.44
2023-01-06T20:35:36.102Z,101105.88
2023-01-06T20:38:04.675Z,101101.00
2023-01-06T20:40:31.200Z,101105.69
2023-01-06T20:42:59.637Z,101106.66
2023-01-06T20:45:34.016Z,101107.53
2023-01-06T20:48:01.838Z,101107.53
2023-01-06T20:50:28.686Z,101119.59
2023-01-06T20:52:55.905Z,101121.44
2023-01-06T20:55:24.666Z,101111.88
2023-01-06T20:57:52.699Z,101116.44
2023-01-06T21:00:19.391Z,101114.59
2023-01-06T21:02:47.511Z,101123.16
2023-01-06T21:05:15.488Z,101121.44
2023-01-06T21:07:44.639Z,101122.19
2023-01-06T21:10:13.003Z,101125.59
2023-01-06T21:12:40.126Z,101126.31
2023-01-06T21:15:07.290Z,101131.19
2023-01-06T21:17:35.050Z,101145.31
2023-01-06T21:20:01.929Z,101142.59
2023-01-06T21:22:32.500Z,101149.72
2023-01-06T21:24:59.127Z,101158.56
2023-01-06T21:27:27.125Z,101158.56
2023-01-06T21:29:53.505Z,101159.44
2023-01-06T21:32:21.762Z,101166.81
2023-01-06T21:34:50.928Z,101174.06
2023-01-06T21:37:18.341Z,101171.63
2023-01-06T21:39:46.620Z,101169.72
2023-01-06T21:42:33.441Z,101167.16
2023-01-06T21:44:59.847Z,101174.16
2023-01-06T21:47:26.856Z,101173.81
2023-01-06T21:49:53.213Z,101182.19
2023-01-06T21:52:21.185Z,101186.41
2023-01-06T21:54:47.517Z,101190.25
2023-01-06T21:57:14.579Z,101197.91
2023-01-06T21:59:41.383Z,101193.91
2023-01-06T22:02:08.874Z,101192.91
2023-01-06T22:04:35.401Z,101201.03
2023-01-06T22:07:05.677Z,101193.16
2023-01-06T22:09:35.341Z,101194.28
2023-01-06T22:12:04.091Z,101198.09
2023-01-06T22:14:31.338Z,101206.34
2023-01-06T22:17:00.487Z,101199.47
2023-01-06T22:19:28.841Z,101209.44
2023-01-06T22:21:59.739Z,101215.34
2023-01-06T22:24:28.158Z,101220.16
2023-01-06T22:26:57.814Z,101226.69
2023-01-06T22:29:27.544Z,101225.97
2023-01-06T22:31:59.308Z,101222.53
2023-01-06T22:34:27.983Z,101230.88
2023-01-06T22:36:56.854Z,101231.88
2023-01-06T22:39:23.772Z,101239.38
2023-01-06T22:41:53.746Z,101237.78
2023-01-06T22:44:20.232Z,101242.31
2023-01-06T22:46:47.022Z,101229.94
2023-01-06T22:49:14.358Z,101236.06
2023-01-06T22:51:44.380Z,101238.03
2023-01-06T22:54:10.917Z,101248.72
2023-01-06T22:56:41.857Z,101245.28
2023-01-06T22:59:09.220Z,101246.38
2023-01-06T23:01:39.288Z,101254.75
2023-01-06T23:04:05.641Z,101248.75
2023-01-06T23:06:42.183Z,101254.25
2023-01-06T23:09:08.851Z,101260.28
2023-01-06T23:11:40.681Z,101252.03
2023-01-06T23:14:08.630Z,101255.47
2023-01-06T23:16:38.380Z,101248.34
2023-01-06T23:19:06.248Z,101258.41
2023-01-06T23:21:35.316Z,101254.72
2023-01-06T23:24:02.084Z,101251.63
2023-01-06T23:26:38.994Z,101248.22
2023-01-06T23:29:05.839Z,101245.41
2023-01-06T23:31:36.104Z,101246.63
2023-01-06T23:34:06.695Z,101241.25
2023-01-06T23:36:34.940Z,101255.25
2023-01-06T23:39:20.129Z,101246.28
2023-01-06T23:41:46.756Z,101246.03
2023-01-06T23:44:15.233Z,101250.94
2023-01-06T23:46:42.943Z,101245.19
2023-01-06T23:49:13.439Z,101250.22
2023-01-06T23:51:43.000Z,101255.88
2023-01-06T23:54:11.434Z,101249.63
2023-01-06T23:56:38.018Z,101253.28
2023-01-06T23:59:06.574Z,101250.97
